Weather observations for the past three days for
Crawfordsville Municipal Airport
Imperial (Metric)
Date Time (edt) Wind (mph) Vis. (mi.) Weather Sky Cond. Temperature (ºF) Relative Humidity Wind Chill (°F) Heat Index (°F) Pressure Precipitation (in)
Air Dwpt 6 hour altimeter (in) sea level (mb) 1 hr 3 hr 6 hr
Max. Min.
03 23:55 Calm 10.00 Fair CLR 73.4 70.9 92% 29.99 0.0
03 23:35 SE 3 10.00 Fair CLR 75.2 72 90% 75 29.98 0.0
03 23:15 SE 5 10.00 Fair CLR 74.5 71.8 91% 29.99 0.0
03 22:55 Calm 10.00 Fair CLR 73.9 71.6 92% 29.99 0.0
03 22:35 SE 3 10.00 Fair CLR 74.1 71.6 92% 29.99 0.0
03 22:15 Calm 10.00 Fair CLR 74.5 71.6 91% 29.98 0.0
03 21:55 Calm 10.00 Fair CLR 75.7 72.5 90% 76 29.98 0.0
03 21:35 SE 3 10.00 Fair CLR 76.6 72.7 88% 78 29.98 0.0
03 21:15 SE 5 10.00 Fair CLR 76.1 72.9 90% 76 29.97 0.0
03 20:55 Calm 10.00 Fair CLR 76.3 73.4 91% 77 29.97 0.0
03 20:35 Calm 10.00 Fair CLR 77 73.6 89% 78 29.97 0.0
03 20:15 Calm 10.00 Fair CLR 79.5 73.8 83% 84 29.96 0.0
03 19:55 Calm 10.00 Fair CLR 83.5 73.9 90.5 83.5 73% 90 29.96 0.0
03 19:35 SW 3 10.00 Fair CLR 85.6 73.2 67% 93 29.96 0.0
03 19:15 SW 5 10.00 Fair CLR 87.1 73.9 65% 95 29.96 0.0
03 18:55 SW 3 10.00 Fair CLR 88.2 75 65% 98 29.96 0.0
03 18:35 W 3 10.00 Fair CLR 89.1 73.8 61% 98 29.96 0.0
03 18:15 W 5 10.00 Fair CLR 89.6 72.1 56% 97 29.96 0.0
03 17:55 W 7 10.00 Fair CLR 89.8 72.7 57% 98 29.96 0.0
03 17:35 SW 6 10.00 Fair CLR 89.8 71.8 55% 97 29.96 0.0
03 17:15 SW 7 10.00 Fair CLR 90.1 71.2 54% 97 29.96 0.0
03 16:55 W 8 10.00 Fair CLR 90.5 71.4 54% 97 29.96 0.0
03 16:35 W 8 10.00 Fair CLR 90.3 71.2 54% 97 29.97 0.0
03 16:15 W 9 10.00 Fair CLR 90.5 71.6 54% 97 29.98 0.0
03 15:55 SW 7 10.00 Fair CLR 90.5 71.8 54% 98 29.99 0.0
03 15:35 W 9 10.00 Fair CLR 90.5 71.6 54% 97 29.99 0.0
03 15:15 W 8 10.00 Fair CLR 90.1 70.9 53% 96 29.99 0.0
03 14:55 W 9 10.00 Partly Cloudy SCT080 90.3 71.8 55% 97 30 0.0
03 14:35 SW 8 10.00 Partly Cloudy SCT080 89.8 72.5 57% 97 30 0.0
03 14:15 W 12 10.00 Fair CLR 89.4 72.5 58% 97 30 0.0
03 13:55 W 12 10.00 Fair CLR 88.9 71.6 88.9 70.7 57% 95 30.01 0.0
03 13:35 W 13 G 16 10.00 Fair CLR 88.3 72 58% 95 30.01 0.0
03 13:15 SW 10 10.00 Fair CLR 88.2 72.1 59% 95 30.01 0.0
03 12:55 W 12 10.00 Fair CLR 87.8 72.7 61% 95 30.02 0.0
03 12:35 SW 10 10.00 Fair CLR 87.1 72.7 62% 94 30.03 0.0
03 12:15 SW 9 10.00 Fair CLR 86.4 72.5 63% 93 30.03 0.0
03 11:55 SW 8 10.00 Fair CLR 85.6 72.1 64% 92 30.03 0.0
03 11:35 SW 9 10.00 Fair CLR 85.5 71.4 63% 91 30.03 0.0
03 11:15 SW 9 10.00 Fair CLR 84.6 72.1 66% 90 30.03 0.0
03 10:55 SW 7 10.00 Fair CLR 83.5 72 68% 89 30.03 0.0
03 10:35 SW 9 10.00 Fair CLR 82 71.4 70% 87 30.02 0.0
03 10:15 SW 8 10.00 Fair CLR 81.3 71.6 72% 86 30.03 0.0
03 09:55 SW 9 10.00 Fair CLR 79.9 70.9 74% 83 30.03 0.0
03 09:35 SW 8 10.00 Fair CLR 78.8 70.2 75% 81 30.03 0.0
03 09:15 SW 8 10.00 Fair CLR 77.4 70.2 79% 79 30.04 0.0
03 08:55 SW 6 10.00 Fair CLR 75.6 69.8 82% 76 30.04 0.0
03 08:35 SW 5 10.00 Fair CLR 73.9 69.1 85% 30.04 0.0
03 08:15 SW 3 10.00 Fair CLR 72 68.4 89% 30.03 0.0
03 07:55 Calm 10.00 Fair CLR 70.7 67.3 74.5 70.2 89% 30.03 0.0
03 07:35 Calm 10.00 Fair CLR 70.3 67.1 90% 30.03 0.0
03 07:15 SW 3 10.00 Fair CLR 71.2 67.5 88% 30.03 0.0
03 06:55 SW 5 10.00 Fair CLR 71.2 67.6 88% 30.02 0.0
03 06:35 SW 6 10.00 Fair CLR 71.6 67.6 87% 30.02 0.0
03 06:15 SW 6 10.00 Fair CLR 71.6 67.6 87% 30.02 0.0
03 05:55 SW 5 10.00 Fair CLR 71.2 67.5 88% 30.02 0.0
03 05:35 SW 3 10.00 Fair CLR 71.6 67.6 87% 30.02 0.0
03 05:15 SW 5 10.00 Fair CLR 71.6 68 88% 30.02 0.0
03 04:55 SW 5 10.00 Fair CLR 71.6 68 88% 30.02 0.0
03 04:35 SW 5 10.00 Fair CLR 71.8 68 88% 30.02 0.0
03 04:15 SW 3 10.00 Fair CLR 71.6 68 88% 30.02 0.0
03 03:55 SW 3 10.00 Fair CLR 72.1 68.4 88% 30.02 0.0
03 03:35 SW 3 10.00 Fair CLR 72.3 68.5 88% 30.02 0.0
03 03:15 SW 5 10.00 Fair CLR 73 68.9 87% 30.01 0.0
03 02:55 SW 3 10.00 Fair CLR 73.4 69.1 86% 30.02 0.0
03 02:35 SW 5 10.00 Fair CLR 73.8 69.4 86% 30.02 0.0
03 02:15 SW 5 10.00 Fair CLR 74.3 69.8 86% 30.02 0.0
03 01:55 SW 5 10.00 Fair CLR 74.3 69.8 83.3 73.9 86% 30.01 0.0
03 01:35 SW 5 10.00 Fair CLR 74.3 70 86% 30.01 0.0
03 01:15 SW 5 10.00 Fair CLR 74.3 70.3 88% 30 0.0
03 00:55 Calm 10.00 Fair CLR 74.1 70.7 89% 30 0.0
03 00:35 S 5 10.00 Fair CLR 74.7 71.1 89% 30 0.0
03 00:15 S 5 10.00 Fair CLR 74.7 71.2 89% 30 0.0
02 23:55 S 5 10.00 Fair CLR 75.2 71.6 89% 75 30 0.0
02 23:35 Calm 10.00 Fair CLR 74.8 71.6 90% 29.99 0.0
02 23:15 Calm 10.00 Fair CLR 75.6 72 89% 75 30 0.0
02 22:55 Calm 10.00 Fair CLR 74.3 71.8 92% 30 0.0
02 22:35 Calm 10.00 Fair CLR 75 72.5 92% 74 30 0.0
02 22:15 Calm 10.00 Fair CLR 73.9 72.1 94% 30 0.0
02 21:55 Calm 10.00 Fair CLR 75.4 73.4 94% 74 30 0.0
02 21:35 Calm 10.00 Fair CLR 75.4 73.2 93% 74 29.99 0.0
02 21:15 Calm 10.00 Fair CLR 75.9 73.4 92% 76 29.99 0.0
02 20:55 Calm 10.00 Fair CLR 78.6 73.8 85% 82 29.99 0.0
02 20:35 Calm 10.00 Fair CLR 79.2 74.3 85% 83 29.98 0.0
02 20:15 Calm 10.00 Fair CLR 81.5 74.3 79% 87 29.99 0.0
02 19:55 S 5 10.00 Fair CLR 83.5 74.3 90.5 83.5 74% 91 29.99 0.0
02 19:35 S 3 10.00 Fair CLR 85.5 75.2 71% 94 29.99 0.0
02 19:15 S 3 10.00 Fair CLR 86.9 73.6 65% 95 29.99 0.0
02 18:55 SW 6 10.00 Fair CLR 87.8 72.5 61% 95 29.99 0.0
02 18:35 SW 5 10.00 Fair CLR 88.3 72.5 60% 96 29.99 0.0
02 18:15 SW 7 10.00 Fair CLR 89.1 72.7 59% 97 29.99 0.0
02 17:55 SW 8 10.00 Fair CLR 89.2 71.6 56% 96 29.99 0.0
02 17:35 SW 10 10.00 Fair CLR 89.6 72 56% 97 29.99 0.0
02 17:15 SW 12 10.00 Fair CLR 89.8 72.5 57% 97 30 0.0
02 16:55 SW 10 10.00 Fair CLR 90 72.3 56% 98 30 0.0
02 16:35 SW 9 10.00 Fair CLR 90.3 72.9 57% 99 30.01 0.0
02 16:15 W 8 10.00 Fair CLR 90.5 72.3 55% 98 30.01 0.0
02 15:55 W 12 10.00 Fair CLR 90.1 72.1 56% 98 30.02 0.0
02 15:35 W 12 10.00 Fair CLR 89.8 72.3 57% 97 30.03 0.0
02 15:15 W 10 10.00 Fair CLR 89.6 72 56% 97 30.03 0.0
02 14:55 SW 8 10.00 Fair CLR 89.8 72.9 58% 98 30.03 0.0
02 14:35 W 12 10.00 Fair CLR 88.9 71.6 57% 95 30.03 0.0
02 14:15 SW 8 10.00 Fair CLR 88.7 72.1 58% 96 30.04 0.0
02 13:55 SW 8 10.00 Fair CLR 88.5 72.3 88.5 70.7 59% 96 30.04 0.0
02 13:35 W 10 G 16 10.00 Fair CLR 88 72.3 60% 95 30.04 0.0
02 13:15 SW 12 10.00 Fair CLR 87.6 72.5 61% 95 30.05 0.0
02 12:55 W 9 10.00 Fair CLR 87.1 72.5 62% 94 30.05 0.0
02 12:35 W 9 10.00 Fair CLR 86.2 72.1 63% 93 30.05 0.0
02 12:15 W 10 G 16 10.00 Fair CLR 85.6 72.3 65% 92 30.05 0.0
02 11:55 SW 10 10.00 Fair CLR 84.7 72.3 66% 91 30.06 0.0
02 11:35 SW 9 10.00 Fair CLR 83.8 72 68% 89 30.06 0.0
02 11:15 SW 10 10.00 Fair CLR 83.3 71.6 68% 88 30.06 0.0
02 10:55 SW 10 10.00 Fair CLR 82.6 71.8 70% 88 30.06 0.0
02 10:35 SW 7 10.00 Fair CLR 81.9 71.6 71% 86 30.06 0.0
02 10:15 SW 10 10.00 Fair CLR 80.8 71.1 72% 85 30.06 0.0
02 09:55 SW 8 10.00 Fair CLR 79.9 71.1 75% 83 30.06 0.0
02 09:35 SW 8 10.00 Fair CLR 78.4 70.9 78% 81 30.07 0.0
02 09:15 SW 5 10.00 Fair CLR 76.6 70 80% 78 30.07 0.0
02 08:55 SW 3 10.00 Fair CLR 74.8 69.6 84% 30.07 0.0
02 08:35 SW 5 10.00 Fair CLR 73.4 68.7 85% 30.07 0.0
02 08:15 SW 3 10.00 Fair CLR 71.8 68 88% 30.07 0.0
02 07:55 SW 5 10.00 Fair CLR 70.7 67.1 73 69.4 88% 30.07 0.0
02 07:35 SW 6 10.00 Fair CLR 69.4 66.4 90% 30.07 0.0
02 07:15 SW 5 10.00 Fair CLR 69.4 66.4 90% 30.06 0.0
02 06:55 SW 5 10.00 Fair CLR 69.8 66.4 89% 30.06 0.0
02 06:35 SW 3 10.00 Fair CLR 69.4 66.2 90% 30.05 0.0
02 06:15 SW 5 10.00 Fair CLR 69.8 66.4 89% 30.05 0.0
02 05:55 SW 3 10.00 Fair CLR 69.8 66.6 90% 30.05 0.0
02 05:35 SW 5 10.00 Fair CLR 70 66.6 89% 30.04 0.0
02 05:15 SW 5 10.00 Fair CLR 70.2 66.7 89% 30.04 0.0
02 04:55 SW 3 10.00 Fair CLR 70.7 67.1 88% 30.03 0.0
02 04:35 SW 5 10.00 Fair CLR 70.7 67.1 88% 30.03 0.0
02 04:15 SW 3 10.00 Fair CLR 70.9 67.1 88% 30.04 0.0
02 03:55 SW 5 10.00 Fair CLR 70.9 67.1 88% 30.04 0.0
02 03:35 SW 5 10.00 Fair CLR 71.2 67.5 88% 30.03 0.0
02 03:15 S 3 10.00 Fair CLR 72 67.8 87% 30.04 0.0
02 02:55 SW 3 10.00 Fair CLR 71.8 67.8 87% 30.03 0.0
02 02:35 S 3 10.00 Fair CLR 72 68 87% 30.03 0.0
02 02:15 S 3 10.00 Fair CLR 72.9 68.4 86% 30.04 0.0
02 01:55 S 5 10.00 Fair CLR 73 68.5 83.3 70.9 86% 30.03 0.0
02 01:35 S 5 10.00 Fair CLR 73.6 69.1 86% 30.03 0.0
02 01:15 SW 5 10.00 Fair CLR 73.4 69.4 87% 30.03 0.0
02 00:55 SW 5 10.00 Fair CLR 73.8 69.8 88% 30.03 0.0
02 00:35 SW 5 10.00 Fair CLR 73.9 69.8 87% 30.03 0.0
02 00:15 SW 5 10.00 Fair CLR 72.3 69.3 90% 30.03 0.0
01 23:55 Calm 10.00 Fair CLR 71.8 70 94% 30.03 0.0
01 23:35 Calm 10.00 Fair CLR 71.2 69.8 95% 30.04 0.0
01 23:15 S 5 10.00 Fair CLR 71.1 69.8 96% 30.04 0.0
01 22:55 Calm 7.00 Partly Cloudy SCT090 72 70.7 96% 30.03 0.0
01 22:35 Calm 5.00 Fog/Mist CLR 72 70.7 96% 30.03 0.0
01 22:15 Calm 10.00 Fair CLR 72.5 70.9 95% 30.03 0.0
01 21:55 Calm 10.00 Fair CLR 73.6 71.6 94% 30.03 0.0
01 21:35 Calm 10.00 Fair CLR 74.3 71.1 90% 30.03 0.0
01 21:15 SW 3 10.00 Fair CLR 77.5 72.5 85% 79 30.02 0.0
01 20:55 SW 3 10.00 Partly Cloudy SCT080 78.4 72.9 83% 81 30.02 0.0
01 20:35 SW 3 10.00 Partly Cloudy SCT080 79.7 73.4 81% 84 30.02 0.0
01 20:15 SW 3 10.00 Mostly Cloudy BKN080 81.5 73.9 78% 87 30.02 0.0
01 19:55 Calm 10.00 Fair CLR 83.3 74.7 89.8 83.3 75% 91 30.02 0.0
01 19:35 SW 3 10.00 Fair CLR 84.6 74.7 72% 93 30.02 0.0
01 19:15 SW 5 10.00 Fair CLR 86.2 74.5 68% 95 30.02 0.0
01 18:55 SW 5 10.00 Fair CLR 87.6 73.9 64% 96 30.02 0.0
01 18:35 SW 5 10.00 Fair CLR 88.5 73.4 61% 97 30.02 0.0
01 18:15 SW 6 10.00 Fair CLR 88.7 72.7 59% 96 30.02 0.0
01 17:55 SW 8 10.00 Fair CLR 89.2 73.4 60% 98 30.02 0.0
01 17:35 SW 7 10.00 Fair CLR 89.6 73 58% 98 30.02 0.0
01 17:15 SW 7 10.00 Fair CLR 89.6 73.8 60% 99 30.02 0.0
01 16:55 W 10 10.00 Fair CLR 89.8 72.7 57% 98 30.02 0.0
01 16:35 W 9 10.00 Fair CLR 89.6 73 58% 98 30.02 0.0
01 16:15 W 9 10.00 Fair CLR 89.6 73.4 59% 98 30.03 0.0
01 15:55 SW 10 10.00 Fair CLR 89.1 73 59% 97 30.03 0.0
01 15:35 SW 9 10.00 Fair CLR 88.9 73.2 60% 97 30.03 0.0
01 15:15 SW 9 10.00 Fair CLR 88.7 72.9 60% 96 30.03 0.0
01 14:55 W 8 10.00 Fair CLR 88.3 72.3 59% 95 30.04 0.0
01 14:35 SW 9 10.00 Fair CLR 87.8 72.3 60% 95 30.04 0.0
01 14:15 SW 12 10.00 Fair CLR 87.4 72.9 62% 95 30.04 0.0
01 13:55 SW 9 10.00 Fair CLR 86.9 72.7 86.9 70 63% 94 30.05 0.0
01 13:35 W 9 10.00 Fair CLR 86.9 72.9 63% 94 30.05 0.0
01 13:15 W 9 10.00 Fair CLR 86 72.1 63% 92 30.06 0.0
01 12:55 W 8 10.00 Fair CLR 85.3 71.8 64% 91 30.06 0.0
01 12:35 W 7 10.00 Fair CLR 84.7 71.2 64% 90 30.06 0.0
01 12:15 W 9 10.00 Fair CLR 84.4 70.9 64% 89 30.06 0.0
01 11:55 SW 9 10.00 Fair CLR 83.3 70.9 66% 88 30.06 0.0
01 11:35 SW 8 10.00 Fair CLR 82.8 71.2 68% 87 30.07 0.0
01 11:15 SW 9 10.00 Fair CLR 81.5 70 68% 85 30.06 0.0
01 10:55 SW 12 10.00 Fair CLR 80.8 69.6 69% 84 30.06 0.0
01 10:35 SW 8 10.00 Fair CLR 79.9 70.3 73% 83 30.06 0.0
01 10:15 SW 9 10.00 Fair CLR 78.8 69.6 74% 81 30.06 0.0
01 09:55 SW 12 10.00 Fair CLR 77.5 69.3 76% 79 30.06 0.0
01 09:35 SW 9 10.00 Fair CLR 76.3 68.9 78% 78 30.06 0.0
01 09:15 SW 8 10.00 Fair CLR 75.2 69.1 81% 76 30.07 0.0
01 08:55 SW 6 10.00 Fair CLR 74.1 68.9 84% 30.07 0.0
01 08:35 SW 6 10.00 Fair CLR 72.5 68 86% 30.06 0.0
01 08:15 SW 6 10.00 Fair CLR 71.4 67.3 87% 30.06 0.0
01 07:55 SW 5 10.00 Fair CLR 70 66.7 72 69.6 90% 30.06 0.0
01 07:35 SW 5 10.00 Fair CLR 69.8 66.7 90% 30.05 0.0
01 07:15 SW 6 10.00 Fair CLR 69.8 66.6 90% 30.05 0.0
01 06:55 SW 5 10.00 Fair CLR 69.8 66.6 90% 30.04 0.0
01 06:35 SW 7 10.00 Fair CLR 70.2 66.9 90% 30.04 0.0
01 06:15 SW 7 10.00 Fair CLR 70.7 67.1 88% 30.04 0.0
01 05:55 SW 7 10.00 Fair CLR 70.3 67.1 90% 30.04 0.0
01 05:35 SW 6 10.00 Fair CLR 70.7 67.1 88% 30.04 0.0
01 05:15 SW 6 10.00 Fair CLR 70.3 67.1 90% 30.04 0.0
01 04:55 SW 6 10.00 Fair CLR 70.9 67.3 88% 30.04 0.0
01 04:35 SW 7 10.00 Fair CLR 70.9 67.3 88% 30.03 0.0
01 04:15 SW 6 10.00 Fair CLR 71.6 67.5 87% 30.03 0.0
01 03:55 SW 6 10.00 Fair CLR 70.3 67.1 90% 30.04 0.0
01 03:35 SW 3 10.00 Fair CLR 70.9 67.3 88% 30.03 0.0
01 03:15 SW 6 10.00 Fair CLR 71.2 67.3 87% 30.03 0.0
01 02:55 SW 6 10.00 Fair CLR 71.1 67.1 87% 30.04 0.0
01 02:35 SW 6 10.00 Fair CLR 71.6 67.3 86% 30.03 0.0
01 02:15 SW 6 10.00 Fair CLR 71.8 67.3 86% 30.03 0.0
01 01:55 SW 6 10.00 Fair CLR 72 67.5 79.9 68.4 86% 30.04 0.0 0.01
01 01:35 SW 5 10.00 Fair CLR 71.8 67.5 86% 30.04 0.0
01 01:15 SW 6 10.00 Fair CLR 72.1 67.6 86% 30.03 0.0
01 00:55 SW 7 10.00 Fair CLR 72.5 67.8 85% 30.03 0.0
01 00:35 SW 7 10.00 Fair CLR 72 67.5 86% 30.03 0.0
01 00:15 S 5 10.00 Fair CLR 70.9 67.1 88% 30.03 0.0
Date Time (edt) Wind (mph) Vis. (mi.) Weather Sky Cond. Air Dwpt Max. Min. Relative Humidity Wind Chill (°F) Heat Index (°F) altimeter (in) sea level (mb) 1 hr 3 hr 6 hr
6 hour
Temperature (ºF) Pressure Precipitation (in)